sensor_id;sensor_type;location;lat;lon;timestamp;pressure;altitude;pressure_sealevel;temperature;humidity
55014;BME280;40916;51.632;5.552;2023-02-10T00:00:08;1031.1665095424137;;;1.957121253552586;0
55014;BME280;40916;51.632;5.552;2023-02-10T00:01:08;1031.1804698423582;;;1.9496658835500114;0
55014;BME280;40916;51.632;5.552;2023-02-10T00:02:08;1031.1180903770353;;;1.934753196672009;0
55014;BME280;40916;51.632;5.552;2023-02-10T00:03:08;1031.080487795977;;;1.9123792956562937;0
55014;BME280;40916;51.632;5.552;2023-02-10T00:04:09;1031.152215576175;;;1.904920028859518;0
55014;BME280;40916;51.632;5.552;2023-02-10T00:05:08;1031.1439823787312;;;1.8899995441695019;0
55014;BME280;40916;51.632;5.552;2023-02-10T00:06:08;1031.1388369448225;;;1.8676139358665473;0
55014;BME280;40916;51.632;5.552;2023-02-10T00:07:11;1031.1568925042725;;;1.8676139358665473;0
55014;BME280;40916;51.632;5.552;2023-02-10T00:08:08;1031.1666896184006;;;1.8526869400736174;0
55014;BME280;40916;51.632;5.552;2023-02-10T00:09:09;1031.2368524859608;;;1.875076456450266;0
55014;BME280;40916;51.632;5.552;2023-02-10T00:10:08;1031.1780421412682;;;1.8601507638195223;0
55014;BME280;40916;51.632;5.552;2023-02-10T00:11:09;1031.253874289592;;;1.8601507638195223;0
55014;BME280;40916;51.632;5.552;2023-02-10T00:12:09;1031.2708848958332;;;1.8452224643931565;0
55014;BME280;40916;51.632;5.552;2023-02-10T00:13:09;1031.2440237844046;;;1.8228251233858614;0
55014;BME280;40916;51.632;5.552;2023-02-10T00:14:09;1031.3709331758153;;;1.8302915562852462;0
55014;BME280;40916;51.632;5.552;2023-02-10T00:15:09;1031.2898932119567;;;1.8078902987155416;0
55014;BME280;40916;51.632;5.552;2023-02-10T00:16:10;1031.3662544282024;;;1.8153580376080427;0
55014;BME280;40916;51.632;5.552;2023-02-10T00:17:09;1031.329070635124;;;1.8004219064719855;0
55014;BME280;40916;51.632;5.552;2023-02-10T00:18:09;1031.2391346903048;;;1.75559781938761;0
55014;BME280;40916;51.632;5.552;2023-02-10T00:19:09;1031.3638114347245;;;1.7331769364255436;0
55014;BME280;40916;51.632;5.552;2023-02-10T00:20:10;1031.3657175093465;;;1.7107501519737305;0
55014;BME280;40916;51.632;5.552;2023-02-10T00:21:11;1031.306812920826;;;1.6957956805642809;0
55014;BME280;40916;51.632;5.552;2023-02-10T00:22:10;1031.3904131662262;;;1.7032732446051035;0
55014;BME280;40916;51.632;5.552;2023-02-10T00:23:10;1031.3753981945194;;;1.6957956805642809;0
55014;BME280;40916;51.632;5.552;2023-02-10T00:24:10;1031.3537396825627;;;1.6957956805642809;0
55014;BME280;40916;51.632;5.552;2023-02-10T00:25:10;1031.3297559363966;;;1.6658788529155792;0
55014;BME280;40916;51.632;5.552;2023-02-10T00:26:11;1031.3844846270338;;;1.6733590460271976;0
55014;BME280;40916;51.632;5.552;2023-02-10T00:27:10;1031.4464318783291;;;1.6808385815135871;0
55014;BME280;40916;51.632;5.552;2023-02-10T00:28:10;1031.3616534083371;;;1.658398001940185;0
55014;BME280;40916;51.632;5.552;2023-02-10T00:29:10;1031.3833101370249;;;1.658398001940185;0
55014;BME280;40916;51.632;5.552;2023-02-10T00:30:11;1031.3255588697011;;;1.658398001940185;0
55014;BME280;40916;51.632;5.552;2023-02-10T00:31:11;1031.3634102893268;;;1.6808385815135871;0
55014;BME280;40916;51.632;5.552;2023-02-10T00:32:11;1031.2693863223537;;;1.7257019976461514;0
55014;BME280;40916;51.632;5.552;2023-02-10T00:33:11;1031.3185596394064;;;1.75559781938761;0
55014;BME280;40916;51.632;5.552;2023-02-10T00:34:11;1031.3088352602758;;;1.7705417992558985;0
55014;BME280;40916;51.632;5.552;2023-02-10T00:35:11;1031.2341117996298;;;1.7854831609856738;0
55014;BME280;40916;51.632;5.552;2023-02-10T00:36:12;1031.3229259989978;;;1.8153580376080427;0
55014;BME280;40916;51.632;5.552;2023-02-10T00:37:11;1031.3461872708667;;;1.8377573365423352;0
55014;BME280;40916;51.632;5.552;2023-02-10T00:38:11;1031.397267784537;;;1.8452224643931565;0
55014;BME280;40916;51.632;5.552;2023-02-10T00:39:12;1031.5149132310785;;;1.875076456450266;0
55014;BME280;40916;51.632;5.552;2023-02-10T00:40:11;1031.3885218989064;;;1.875076456450266;0
55014;BME280;40916;51.632;5.552;2023-02-10T00:41:12;1031.334354228175;;;1.875076456450266;0
55014;BME280;40916;51.632;5.552;2023-02-10T00:42:12;1031.4060234081974;;;1.9198379124007978;0
55014;BME280;40916;51.632;5.552;2023-02-10T00:43:12;1031.4250806241726;;;1.934753196672009;0
55014;BME280;40916;51.632;5.552;2023-02-10T00:44:12;1031.367294161315;;;1.934753196672009;0
55014;BME280;40916;51.632;5.552;2023-02-10T00:45:12;1031.4482322095928;;;1.957121253552586;0
55014;BME280;40916;51.632;5.552;2023-02-10T00:46:12;1031.4255766480235;;;1.9422098646679302;0
55014;BME280;40916;51.632;5.552;2023-02-10T00:47:12;1031.440023505697;;;1.9422098646679302;0
55014;BME280;40916;51.632;5.552;2023-02-10T00:48:12;1031.4132464795791;;;1.9198379124007978;0
55014;BME280;40916;51.632;5.552;2023-02-10T00:49:12;1031.3219519176175;;;1.904920028859518;0
55014;BME280;40916;51.632;5.552;2023-02-10T00:50:12;1031.422052038098;;;1.8899995441695019;0
55014;BME280;40916;51.632;5.552;2023-02-10T00:51:13;1031.4075722589303;;;1.8377573365423352;0
55014;BME280;40916;51.632;5.552;2023-02-10T00:52:13;1031.3476634872654;;;1.8078902987155416;0
55014;BME280;40916;51.632;5.552;2023-02-10T00:53:13;1031.401282320537;;;1.8004219064719855;0
55014;BME280;40916;51.632;5.552;2023-02-10T00:54:13;1031.402704263535;;;1.7705417992558985;0
55014;BME280;40916;51.632;5.552;2023-02-10T00:55:13;1031.415477086107;;;1.7481248470588184;0
55014;BME280;40916;51.632;5.552;2023-02-10T00:56:13;1031.4246158630422;;;1.7257019976461514;0
55014;BME280;40916;51.632;5.552;2023-02-10T00:57:13;1031.3748199517058;;;1.6883174596131738;0
55014;BME280;40916;51.632;5.552;2023-02-10T00:58:13;1031.4127747640275;;;1.6658788529155792;0
55014;BME280;40916;51.632;5.552;2023-02-10T00:59:13;1031.3490286058018;;;1.5910406998744762;0
55014;BME280;40916;51.632;5.552;2023-02-10T01:00:14;1031.4584293821556;;;1.5610869649077372;0
55014;BME280;40916;51.632;5.552;2023-02-10T01:01:13;1031.4107000990841;;;1.50864246265445;0
55014;BME280;40916;51.632;5.552;2023-02-10T01:02:14;1031.4687986508566;;;1.4711622217117153;0
55014;BME280;40916;51.632;5.552;2023-02-10T01:03:14;1031.4940544346923;;;1.4711622217117153;0
55014;BME280;40916;51.632;5.552;2023-02-10T01:04:14;1031.3464400778037;;;1.433665378096162;0
55014;BME280;40916;51.632;5.552;2023-02-10T01:05:14;1031.4120433910982;;;1.4411660764835688;0
55014;BME280;40916;51.632;5.552;2023-02-10T01:06:14;1031.3746341708516;;;1.4261640143924765;0
55014;BME280;40916;51.632;5.552;2023-02-10T01:07:14;1031.4260502777606;;;1.39615190156767;0
55014;BME280;40916;51.632;5.552;2023-02-10T01:08:14;1031.4420359565413;;;1.3736358192449636;0
55014;BME280;40916;51.632;5.552;2023-02-10T01:09:14;1031.499180888702;;;1.3285856320676857;0
55014;BME280;40916;51.632;5.552;2023-02-10T01:10:14;1031.4941612811174;;;1.313563555856991;0
55014;BME280;40916;51.632;5.552;2023-02-10T01:11:14;1031.477596793232;;;1.2910254218791515;0
55014;BME280;40916;51.632;5.552;2023-02-10T01:12:15;1031.532411563219;;;1.2609651962776134;0
55014;BME280;40916;51.632;5.552;2023-02-10T01:13:15;1031.577096852537;;;1.238412983288672;0
55014;BME280;40916;51.632;5.552;2023-02-10T01:14:15;1031.5424236812075;;;1.215854725414733;0
55014;BME280;40916;51.632;5.552;2023-02-10T01:15:15;1031.5287416063877;;;1.2233748167688603;0
55014;BME280;40916;51.632;5.552;2023-02-10T01:16:15;1031.4516153477477;;;1.2459310589451853;0
55014;BME280;40916;51.632;5.552;2023-02-10T01:17:15;1031.4501474326353;;;1.2308942359783472;0
55014;BME280;40916;51.632;5.552;2023-02-10T01:18:15;1031.5583292127026;;;1.2308942359783472;0
55014;BME280;40916;51.632;5.552;2023-02-10T01:19:15;1031.5813438860653;;;1.2083339616703697;0
55014;BME280;40916;51.632;5.552;2023-02-10T01:20:15;1031.5935158281195;;;1.185767633638143;0
55014;BME280;40916;51.632;5.552;2023-02-10T01:21:17;1031.524047048532;;;1.1406167898282078;0
55014;BME280;40916;51.632;5.552;2023-02-10T01:22:16;1031.5557245636521;;;1.1330892886474473;0
55014;BME280;40916;51.632;5.552;2023-02-10T01:23:16;1031.4745562897099;;;1.0803778637484598;0
55014;BME280;40916;51.632;5.552;2023-02-10T01:24:16;1031.6351873337203;;;1.0653113688651032;0
55014;BME280;40916;51.632;5.552;2023-02-10T01:25:16;1031.6391896459365;;;1.0351702491843469;0
55014;BME280;40916;51.632;5.552;2023-02-10T01:26:16;1031.5726915819146;;;1.0200956204140716;0
55014;BME280;40916;51.632;5.552;2023-02-10T01:27:16;1031.5982598086937;;;0.9899382150669673;0
55014;BME280;40916;51.632;5.552;2023-02-10T01:28:16;1031.5572439247678;;;0.9446817076312506;0
55014;BME280;40916;51.632;5.552;2023-02-10T01:29:16;1031.5816318597074;;;0.9371365732576287;0
55014;BME280;40916;51.632;5.552;2023-02-10T01:30:16;1031.643964433678;;;0.9144970797640113;0
55014;BME280;40916;51.632;5.552;2023-02-10T01:31:18;1031.6541012503824;;;0.8767509410058736;0
55014;BME280;40916;51.632;5.552;2023-02-10T01:32:17;1031.7208315579342;;;0.861647702290437;0
55014;BME280;40916;51.632;5.552;2023-02-10T01:33:17;1031.7344715288082;;;0.8238776298848016;0
55014;BME280;40916;51.632;5.552;2023-02-10T01:34:17;1031.6723414790274;;;0.8163215604276566;0
55014;BME280;40916;51.632;5.552;2023-02-10T01:35:17;1031.7021033248088;;;0.7936492375685944;0
55014;BME280;40916;51.632;5.552;2023-02-10T01:36:18;1031.7426456709973;;;0.7709707376787982;0
55014;BME280;40916;51.632;5.552;2023-02-10T01:37:17;1031.6669807078945;;;0.740723117319142;0
55014;BME280;40916;51.632;5.552;2023-02-10T01:38:17;1031.7407996640068;;;0.7255951795099698;0
55014;BME280;40916;51.632;5.552;2023-02-10T01:39:17;1031.6984195636212;;;0.7028981075572744;0
55014;BME280;40916;51.632;5.552;2023-02-10T01:40:17;1031.6460141050525;;;0.6574853436555728;0
55014;BME280;40916;51.632;5.552;2023-02-10T01:41:18;1031.7135022204404;;;0.6499141330021878;0
55014;BME280;40916;51.632;5.552;2023-02-10T01:42:18;1031.6871533333765;;;0.6120477072944617;0
55014;BME280;40916;51.632;5.552;2023-02-10T01:43:18;1031.6816378264364;;;0.5968962917755825;0
55014;BME280;40916;51.632;5.552;2023-02-10T01:45:19;1031.7108606910258;;;0.5438444963173303;0
55014;BME280;40916;51.632;5.552;2023-02-10T01:45:22;1031.7327592398349;;;0.5741639707850084;0
55014;BME280;40916;51.632;5.552;2023-02-10T01:46:18;1031.7586468838042;;;0.5514254063972253;0
55014;BME280;40916;51.632;5.552;2023-02-10T01:47:18;1031.7226402199751;;;0.5514254063972253;0
55014;BME280;40916;51.632;5.552;2023-02-10T01:48:18;1031.6980962628172;;;0.5286805916925701;0
55014;BME280;40916;51.632;5.552;2023-02-10T01:49:19;1031.601524703204;;;0.5059295197411515;0
55014;BME280;40916;51.632;5.552;2023-02-10T01:50:20;1031.6247400938087;;;0.49075865876519487;0
55014;BME280;40916;51.632;5.552;2023-02-10T01:51:19;1031.7173459420849;;;0.4831721836028251;0
55014;BME280;40916;51.632;5.552;2023-02-10T01:52:20;1031.5893402095546;;;0.4679971426415612;0
55014;BME280;40916;51.632;5.552;2023-02-10T01:53:19;1031.5497402303176;;;0.4679971426415612;0
55014;BME280;40916;51.632;5.552;2023-02-10T01:54:20;1031.4165404014839;;;0.4679971426415612;0
55014;BME280;40916;51.632;5.552;2023-02-10T01:55:20;1031.408338722633;;;0.4604085763271861;0
55014;BME280;40916;51.632;5.552;2023-02-10T01:56:19;1031.3995393040589;;;0.47558501164750666;0
55014;BME280;40916;51.632;5.552;2023-02-10T01:57:19;1031.4473370109745;;;0.4831721836028251;0
55014;BME280;40916;51.632;5.552;2023-02-10T01:58:20;1031.4345403692246;;;0.4679971426415612;0
55014;BME280;40916;51.632;5.552;2023-02-10T01:59:19;1031.3415308033861;;;0.4452293507412932;0
55014;BME280;40916;51.632;5.552;2023-02-10T02:00:20;1031.3179129348637;;;0.4300473328248593;0
55014;BME280;40916;51.632;5.552;2023-02-10T02:01:20;1031.4007058037635;;;0.4300473328248593;0
55014;BME280;40916;51.632;5.552;2023-02-10T02:02:20;1031.3236172156355;;;0.3920800580178714;0
55014;BME280;40916;51.632;5.552;2023-02-10T02:03:20;1031.3652576744116;;;0.4072690658082969;0
55014;BME280;40916;51.632;5.552;2023-02-10T02:04:20;1031.2989332922793;;;0.36929129648287073;0
55014;BME280;40916;51.632;5.552;2023-02-10T02:05:21;1031.3369876139009;;;0.38448450441199356;0
55014;BME280;40916;51.632;5.552;2023-02-10T02:06:20;1031.3333882866773;;;0.38448450441199356;0
55014;BME280;40916;51.632;5.552;2023-02-10T02:07:21;1031.3092196677608;;;0.3920800580178714;0
55014;BME280;40916;51.632;5.552;2023-02-10T02:08:21;1031.3045936729973;;;0.38448450441199356;0
55014;BME280;40916;51.632;5.552;2023-02-10T02:09:20;1031.375033750657;;;0.3996749117302798;0
55014;BME280;40916;51.632;5.552;2023-02-10T02:10:20;1031.3668098702099;;;0.3920800580178714;0
55014;BME280;40916;51.632;5.552;2023-02-10T02:11:21;1031.3765802208852;;;0.38448450441199356;0
55014;BME280;40916;51.632;5.552;2023-02-10T02:12:23;1031.4506222081977;;;0.3996749117302798;0
55014;BME280;40916;51.632;5.552;2023-02-10T02:13:23;1031.3606359549242;;;0.3996749117302798;0
55014;BME280;40916;51.632;5.552;2023-02-10T02:14:24;1031.3786331998754;;;0.3996749117302798;0
55014;BME280;40916;51.632;5.552;2023-02-10T02:15:22;1031.4074287977285;;;0.3996749117302798;0
55014;BME280;40916;51.632;5.552;2023-02-10T02:16:24;1031.435198273546;;;0.3920800580178714;0
55014;BME280;40916;51.632;5.552;2023-02-10T02:17:26;1031.4480232739506;;;0.35409528586772154;0
55014;BME280;40916;51.632;5.552;2023-02-10T02:18:23;1031.4315400309445;;;0.33889647048930627;0
55014;BME280;40916;51.632;5.552;2023-02-10T02:19:27;1031.466481684397;;;0.33129601036418066;0
55014;BME280;40916;51.632;5.552;2023-02-10T02:20:25;1031.4484871415268;;;0.33129601036418066;0
55014;BME280;40916;51.632;5.552;2023-02-10T02:21:31;1031.4381305384607;;;0.3084904171234726;0
55014;BME280;40916;51.632;5.552;2023-02-10T02:22:27;1031.465430992245;;;0.3236948482683424;0
55014;BME280;40916;51.632;5.552;2023-02-10T02:23:26;1031.415480292462;;;0.3008871475535919;0
55014;BME280;40916;51.632;5.552;2023-02-10T02:24:33;1031.5050183320357;;;0.3236948482683424;0
55014;BME280;40916;51.632;5.552;2023-02-10T02:25:26;1031.4561241738952;;;0.3084904171234726;0
55014;BME280;40916;51.632;5.552;2023-02-10T02:26:27;1031.6000733599965;;;0.3084904171234726;0
55014;BME280;40916;51.632;5.552;2023-02-10T02:27:25;1031.4328126633566;;;0.27046703654180604;0
55014;BME280;40916;51.632;5.552;2023-02-10T02:28:23;1031.5065868803383;;;0.2324260545492045;0
55014;BME280;40916;51.632;5.552;2023-02-10T02:29:29;1031.5824749462276;;;0.20959300308057038;0
55014;BME280;40916;51.632;5.552;2023-02-10T02:30:27;1031.570585712895;;;0.20198057397404057;0
55014;BME280;40916;51.632;5.552;2023-02-10T02:31:28;1031.591360897665;;;0.17152379080081204;0
55014;BME280;40916;51.632;5.552;2023-02-10T02:32:22;1031.5495670973498;;;0.15629115548870942;0
55014;BME280;40916;51.632;5.552;2023-02-10T02:33:23;1031.5484532186747;;;0.14867377598107012;0
55014;BME280;40916;51.632;5.552;2023-02-10T02:34:24;1031.553164618829;;;0.15629115548870942;0
55014;BME280;40916;51.632;5.552;2023-02-10T02:35:24;1031.588025295329;;;0.14867377598107012;0
55014;BME280;40916;51.632;5.552;2023-02-10T02:36:23;1031.5318280678036;;;0.1334368919465625;0
55014;BME280;40916;51.632;5.552;2023-02-10T02:37:23;1031.6325536141517;;;0.1334368919465625;0
55014;BME280;40916;51.632;5.552;2023-02-10T02:38:23;1031.6853894880046;;;0.12581738689287647;0
55014;BME280;40916;51.632;5.552;2023-02-10T02:39:23;1031.6937084537303;;;0.1334368919465625;0
55014;BME280;40916;51.632;5.552;2023-02-10T02:40:23;1031.5835403270098;;;0.1181971727968083;0
55014;BME280;40916;51.632;5.552;2023-02-10T02:41:24;1031.560829429079;;;0.1105762493946223;0
55014;BME280;40916;51.632;5.552;2023-02-10T02:42:24;1031.5118047422818;;;0.09533227361631447;0
55014;BME280;40916;51.632;5.552;2023-02-10T02:43:23;1031.5118047422818;;;0.09533227361631447;0
55014;BME280;40916;51.632;5.552;2023-02-10T02:44:24;1031.5428436369868;;;0.1105762493946223;0
55014;BME280;40916;51.632;5.552;2023-02-10T02:45:25;1031.5124786154988;;;0.14867377598107012;0
55014;BME280;40916;51.632;5.552;2023-02-10T02:46:26;1031.4820405994856;;;0.18675359626190868;0
55014;BME280;40916;51.632;5.552;2023-02-10T02:47:29;1031.500813737414;;;0.21720472603717766;0
55014;BME280;40916;51.632;5.552;2023-02-10T02:48:56;1031.4594532969543;;;0.25525275774292666;0
55014;BME280;40916;51.632;5.552;2023-02-10T02:49:26;1031.4525254465802;;;0.3084904171234726;0
55014;BME280;40916;51.632;5.552;2023-02-10T02:50:26;1031.4021432761435;;;0.3084904171234726;0
55014;BME280;40916;51.632;5.552;2023-02-10T02:51:28;1031.4999204459614;;;0.33889647048930627;0
55014;BME280;40916;51.632;5.552;2023-02-10T02:52:26;1031.3883524216192;;;0.33889647048930627;0
55014;BME280;40916;51.632;5.552;2023-02-10T02:53:27;1031.4109906334736;;;0.34649622890383114;0
55014;BME280;40916;51.632;5.552;2023-02-10T02:54:25;1031.3817150461582;;;0.36929129648287073;0
55014;BME280;40916;51.632;5.552;2023-02-10T02:55:26;1031.4336269173145;;;0.35409528586772154;0
55014;BME280;40916;51.632;5.552;2023-02-10T02:56:27;1031.4793721831666;;;0.34649622890383114;0
55014;BME280;40916;51.632;5.552;2023-02-10T02:57:26;1031.42224481912;;;0.3236948482683424;0
55014;BME280;40916;51.632;5.552;2023-02-10T02:58:26;1031.4546344474245;;;0.3236948482683424;0
55014;BME280;40916;51.632;5.552;2023-02-10T02:59:26;1031.4241521668314;;;0.2856784991158392;0
55014;BME280;40916;51.632;5.552;2023-02-10T03:00:26;1031.4648002281626;;;0.29328317497129675;0
55014;BME280;40916;51.632;5.552;2023-02-10T03:01:26;1031.427334358568;;;0.3084904171234726;0
55014;BME280;40916;51.632;5.552;2023-02-10T03:02:25;1031.463321628867;;;0.3084904171234726;0
55014;BME280;40916;51.632;5.552;2023-02-10T03:03:25;1031.5287122119692;;;0.33889647048930627;0
55014;BME280;40916;51.632;5.552;2023-02-10T03:04:26;1031.5148858203067;;;0.36929129648287073;0
55014;BME280;40916;51.632;5.552;2023-02-10T03:05:27;1031.5262107160447;;;0.3996749117302798;0
55014;BME280;40916;51.632;5.552;2023-02-10T03:06:26;1031.4948400788658;;;0.4072690658082969;0
55014;BME280;40916;51.632;5.552;2023-02-10T03:07:26;1031.5092381329316;;;0.4072690658082969;0
55014;BME280;40916;51.632;5.552;2023-02-10T03:08:26;1031.4814635783202;;;0.4148625205108729;0
55014;BME280;40916;51.632;5.552;2023-02-10T03:09:26;1031.5230953726893;;;0.4300473328248593;0
55014;BME280;40916;51.632;5.552;2023-02-10T03:10:26;1031.6094880889834;;;0.4300473328248593;0
55014;BME280;40916;51.632;5.552;2023-02-10T03:11:26;1031.6033042893241;;;0.43763869095353414;0
55014;BME280;40916;51.632;5.552;2023-02-10T03:12:26;1031.5822516723376;;;0.4148625205108729;0
55014;BME280;40916;51.632;5.552;2023-02-10T03:13:26;1031.677387882658;;;0.3996749117302798;0
55014;BME280;40916;51.632;5.552;2023-02-10T03:14:26;1031.7087522986812;;;0.3920800580178714;0
55014;BME280;40916;51.632;5.552;2023-02-10T03:15:27;1031.6696520513085;;;0.36929129648287073;0
55014;BME280;40916;51.632;5.552;2023-02-10T03:16:27;1031.7704301755664;;;0.36929129648287073;0
55014;BME280;40916;51.632;5.552;2023-02-10T03:17:27;1031.7256034178452;;;0.33129601036418066;0
55014;BME280;40916;51.632;5.552;2023-02-10T03:18:27;1031.815576380231;;;0.33129601036418066;0
55014;BME280;40916;51.632;5.552;2023-02-10T03:19:27;1031.7764113616072;;;0.3084904171234726;0
55014;BME280;40916;51.632;5.552;2023-02-10T03:20:27;1031.8581170345676;;;0.3008871475535919;0
55014;BME280;40916;51.632;5.552;2023-02-10T03:21:27;1031.8437223166297;;;0.3008871475535919;0
55014;BME280;40916;51.632;5.552;2023-02-10T03:22:27;1031.783608836876;;;0.3084904171234726;0
55014;BME280;40916;51.632;5.552;2023-02-10T03:23:27;1031.7933408182143;;;0.3008871475535919;0
55014;BME280;40916;51.632;5.552;2023-02-10T03:24:27;1031.7681500773876;;;0.3008871475535919;0
55014;BME280;40916;51.632;5.552;2023-02-10T03:25:27;1031.8828981790539;;;0.3236948482683424;0
55014;BME280;40916;51.632;5.552;2023-02-10T03:26:28;1031.7872075746818;;;0.3084904171234726;0
55014;BME280;40916;51.632;5.552;2023-02-10T03:27:28;1031.7865336475809;;;0.2780731197263435;0
55014;BME280;40916;51.632;5.552;2023-02-10T03:28:28;1031.8487812887608;;;0.2856784991158392;0
55014;BME280;40916;51.632;5.552;2023-02-10T03:29:28;1031.814602641126;;;0.2476445616059273;0
55014;BME280;40916;51.632;5.552;2023-02-10T03:30:28;1031.7944372269826;;;0.2324260545492045;0
55014;BME280;40916;51.632;5.552;2023-02-10T03:31:28;1031.901288407357;;;0.22481574310604557;0
55014;BME280;40916;51.632;5.552;2023-02-10T03:32:28;1031.8467938897284;;;0.17152379080081204;0
55014;BME280;40916;51.632;5.552;2023-02-10T03:33:28;1031.8376023238065;;;0.1334368919465625;0
55014;BME280;40916;51.632;5.552;2023-02-10T03:34:28;1031.8796429736171;;;0.12581738689287647;0
55014;BME280;40916;51.632;5.552;2023-02-10T03:35:28;1031.92054586904;;;0.1105762493946223;0
55014;BME280;40916;51.632;5.552;2023-02-10T03:36:28;1031.8057835368732;;;0.06483579876746148;0
55014;BME280;40916;51.632;5.552;2023-02-10T03:37:29;1031.8574298615995;;;0.04958329546564144;0
55014;BME280;40916;51.632;5.552;2023-02-10T03:38:29;1031.7821180276726;;;0.003808696618808227;0
55014;BME280;40916;51.632;5.552;2023-02-10T03:39:29;1031.884061276646;;;-0.011455206387271488;0
55014;BME280;40916;51.632;5.552;2023-02-10T03:40:29;1031.8169710833354;;;-0.02672196463220189;0
55014;BME280;40916;51.632;5.552;2023-02-10T03:41:29;1031.7834548121227;;;-0.057264055358082544;0
55014;BME280;40916;51.632;5.552;2023-02-10T03:42:29;1031.755894802599;;;-0.07253939210407268;0
55014;BME280;40916;51.632;5.552;2023-02-10T03:43:29;1031.7355168664885;;;-0.08781759261899325;0
55014;BME280;40916;51.632;5.552;2023-02-10T03:44:29;1031.860156670277;;;-0.09545776745778412;0
55014;BME280;40916;51.632;5.552;2023-02-10T03:45:29;1031.8889209301065;;;-0.09545776745778412;0
55014;BME280;40916;51.632;5.552;2023-02-10T03:46:29;1031.8805209234154;;;-0.10309865904066129;0
55014;BME280;40916;51.632;5.552;2023-02-10T03:47:29;1031.884116395469;;;-0.10309865904066129;0
55014;BME280;40916;51.632;5.552;2023-02-10T03:48:30;1031.9200711222625;;;-0.10309865904066129;0
55014;BME280;40916;51.632;5.552;2023-02-10T03:49:30;1031.884116395469;;;-0.10309865904066129;0
55014;BME280;40916;51.632;5.552;2023-02-10T03:50:30;1031.8193979159225;;;-0.10309865904066129;0
55014;BME280;40916;51.632;5.552;2023-02-10T03:51:30;1031.8984982848203;;;-0.10309865904066129;0
55014;BME280;40916;51.632;5.552;2023-02-10T03:52:30;1031.9212976155063;;;-0.07253939210407268;0
55014;BME280;40916;51.632;5.552;2023-02-10T03:53:30;1031.9596507596343;;;-0.057264055358082544;0
55014;BME280;40916;51.632;5.552;2023-02-10T03:54:30;1031.9248933315055;;;-0.07253939210407268;0
55014;BME280;40916;51.632;5.552;2023-02-10T03:55:30;1031.8925318916108;;;-0.07253939210407268;0
55014;BME280;40916;51.632;5.552;2023-02-10T03:56:30;1031.8793405073063;;;-0.08781759261899325;0
55014;BME280;40916;51.632;5.552;2023-02-10T03:57:30;1031.891307339917;;;-0.10309865904066129;0
55014;BME280;40916;51.632;5.552;2023-02-10T03:58:30;1031.8853253972295;;;-0.09545776745778412;0
55014;BME280;40916;51.632;5.552;2023-02-10T03:59:31;1031.7857774021136;;;-0.13366939816621937;0
55014;BME280;40916;51.632;5.552;2023-02-10T04:00:31;1031.8241646778365;;;-0.11838259350904323;0
55014;BME280;40916;51.632;5.552;2023-02-10T04:01:31;1031.8612771786409;;;-0.13366939816621937;0
55014;BME280;40916;51.632;5.552;2023-02-10T04:02:31;1031.80727170537;;;-0.15660499144704687;0
55014;BME280;40916;51.632;5.552;2023-02-10T04:03:31;1031.8600549438738;;;-0.14131387748559376;0
55014;BME280;40916;51.632;5.552;2023-02-10T04:04:31;1031.7641311756013;;;-0.15660499144704687;0
55014;BME280;40916;51.632;5.552;2023-02-10T04:05:31;1031.824017111098;;;-0.1642516266259797;0
55014;BME280;40916;51.632;5.552;2023-02-10T04:06:31;1031.7687443301684;;;-0.19484536159935928;0
55014;BME280;40916;51.632;5.552;2023-02-10T04:07:31;1031.8239061773181;;;-0.18719584817957724;0
55014;BME280;40916;51.632;5.552;2023-02-10T04:08:32;1031.789195570382;;;-0.17954705472341814;0
55014;BME280;40916;51.632;5.552;2023-02-10T04:09:31;1031.7818805095794;;;-0.20249559525193206;0
55014;BME280;40916;51.632;5.552;2023-02-10T04:10:32;1031.8598542077193;;;-0.18719584817957724;0
55014;BME280;40916;51.632;5.552;2023-02-10T04:11:32;1031.877689763095;;;-0.21014654940659128;0
55014;BME280;40916;51.632;5.552;2023-02-10T04:12:32;1031.826116061693;;;-0.21779822433277118;0